Terminal Aerodrome Forecast
Issued by NWS

Home | Current Version | Previous Version | Text Only | Print | Product List | Glossary On
Versions: 1 2 3 4 5 6 7 8 9 10 11 12 13
000
FTUS45 KFGZ 162300
TAFGCN
TAF
KGCN 162326Z 1700/1724 30008G16KT P6SM FEW120 SCT200
     FM170200 VRB04KT P6SM FEW250
     FM171900 23010G18KT P6SM SCT250=

USA.gov is the U.S. government's official web portal to all federal, state and local government web resources and services.